createdAt,value
2019-03-08T00:00:20.792Z,0.7
2019-03-08T00:01:20.784Z,0.7
2019-03-08T00:02:20.796Z,0.7
2019-03-08T00:03:20.797Z,0.8
2019-03-08T00:04:21.069Z,0.8
2019-03-08T00:05:20.820Z,0.7
2019-03-08T00:06:20.810Z,0.7
2019-03-08T00:07:23.044Z,0.6
2019-03-08T00:08:20.804Z,0.6
2019-03-08T00:09:20.812Z,0.6
2019-03-08T00:10:20.821Z,0.6
2019-03-08T00:11:20.830Z,0.6
2019-03-08T00:12:20.822Z,0.5
2019-03-08T00:13:20.835Z,0.6
2019-03-08T00:14:20.878Z,0.7
2019-03-08T00:15:20.906Z,0.6
2019-03-08T00:16:20.933Z,0.5
2019-03-08T00:17:20.913Z,0.5
2019-03-08T00:18:20.974Z,0.6
2019-03-08T00:19:21.001Z,0.6
2019-03-08T00:20:21.004Z,0.5
2019-03-08T00:21:21.054Z,0.5
2019-03-08T00:22:21.051Z,0.4
2019-03-08T00:23:21.052Z,0.5
2019-03-08T00:24:21.123Z,0.6
2019-03-08T00:25:21.114Z,0.4
2019-03-08T00:26:21.275Z,0.5
2019-03-08T00:27:21.179Z,0.5
2019-03-08T00:28:21.183Z,0.5
2019-03-08T00:29:21.173Z,0.5
2019-03-08T00:30:21.213Z,0.4
2019-03-08T00:31:21.195Z,0.4
2019-03-08T00:32:21.235Z,0.4
2019-03-08T00:33:21.246Z,0.4
2019-03-08T00:34:21.249Z,0.4
2019-03-08T00:35:21.274Z,0.4
2019-03-08T00:36:21.399Z,0.5
2019-03-08T00:37:21.326Z,0.5
2019-03-08T00:38:21.307Z,0.5
2019-03-08T00:39:21.350Z,0.5
2019-03-08T00:40:21.348Z,0.4
2019-03-08T00:41:21.384Z,0.4
2019-03-08T00:42:21.396Z,0.4
2019-03-08T00:43:21.391Z,0.5
2019-03-08T00:44:21.389Z,0.5
2019-03-08T00:45:21.392Z,0.5
2019-03-08T00:46:21.443Z,0.5
2019-03-08T00:47:21.450Z,0.4
2019-03-08T00:48:21.442Z,0.5
2019-03-08T00:49:21.447Z,0.5
2019-03-08T00:50:21.473Z,0.6
2019-03-08T00:51:21.456Z,0.6
2019-03-08T00:52:21.459Z,0.6
2019-03-08T00:53:21.470Z,0.6
2019-03-08T00:54:21.585Z,0.6
2019-03-08T00:55:21.480Z,0.6
2019-03-08T00:56:23.824Z,0.8
2019-03-08T00:57:21.535Z,0.7
2019-03-08T00:58:21.496Z,0.7
2019-03-08T00:59:21.522Z,0.8
2019-03-08T01:00:21.511Z,0.8
2019-03-08T01:01:21.564Z,0.8
2019-03-08T01:02:21.556Z,0.8
2019-03-08T01:03:21.537Z,0.9
2019-03-08T01:04:21.695Z,0.8
2019-03-08T01:05:21.574Z,0.9
2019-03-08T01:06:21.540Z,0.9
2019-03-08T01:07:21.560Z,1
2019-03-08T01:08:21.644Z,0.9
2019-03-08T01:09:21.667Z,0.9
2019-03-08T01:10:21.695Z,0.9
2019-03-08T01:11:21.698Z,0.9
2019-03-08T01:12:21.729Z,1
2019-03-08T01:13:21.773Z,1
2019-03-08T01:14:21.776Z,1
2019-03-08T01:15:21.787Z,1
2019-03-08T01:16:25.984Z,1.1
2019-03-08T01:17:21.807Z,1
2019-03-08T01:18:21.899Z,1.1
2019-03-08T01:19:21.923Z,1.1
2019-03-08T01:20:21.955Z,1
2019-03-08T01:21:22.010Z,1
2019-03-08T01:22:22.057Z,1.1
2019-03-08T01:23:22.089Z,1
2019-03-08T01:24:22.092Z,1
2019-03-08T01:25:22.127Z,1
2019-03-08T01:26:22.166Z,1
2019-03-08T01:27:22.208Z,1
2019-03-08T01:28:22.194Z,1.1
2019-03-08T01:29:22.198Z,1
2019-03-08T01:30:22.254Z,1
2019-03-08T01:31:22.270Z,0.9
2019-03-08T01:32:22.278Z,0.9
2019-03-08T01:33:22.303Z,0.9
2019-03-08T01:34:22.337Z,0.9
2019-03-08T01:35:22.368Z,1
2019-03-08T01:36:22.416Z,1
2019-03-08T01:37:22.426Z,1
2019-03-08T01:38:22.423Z,1
2019-03-08T01:39:22.463Z,1
2019-03-08T01:40:22.487Z,1
2019-03-08T01:41:22.516Z,0.9
2019-03-08T01:42:22.523Z,1
2019-03-08T01:43:22.543Z,1.1
2019-03-08T01:44:22.595Z,1
2019-03-08T01:45:22.592Z,1
2019-03-08T01:46:22.625Z,1
2019-03-08T01:47:22.639Z,1
2019-03-08T01:48:22.690Z,1
2019-03-08T01:49:22.764Z,1
2019-03-08T01:50:22.725Z,1
2019-03-08T01:51:22.736Z,0.9
2019-03-08T01:52:22.988Z,1
2019-03-08T01:53:22.792Z,0.9
2019-03-08T01:54:22.808Z,0.8
2019-03-08T01:55:22.853Z,0.9
2019-03-08T01:56:22.839Z,0.8
2019-03-08T01:57:22.867Z,0.7
2019-03-08T01:58:22.876Z,0.7
2019-03-08T01:59:22.930Z,0.7
2019-03-08T02:00:22.916Z,0.7
2019-03-08T02:01:22.929Z,0.7
2019-03-08T02:02:22.960Z,0.7
2019-03-08T02:03:22.977Z,0.7
2019-03-08T02:04:22.991Z,0.7
2019-03-08T02:05:22.985Z,0.7
2019-03-08T02:06:23.037Z,0.6
2019-03-08T02:07:23.052Z,0.6
2019-03-08T02:08:23.054Z,0.6
2019-03-08T02:09:23.123Z,0.5
2019-03-08T02:10:23.074Z,0.5
2019-03-08T02:11:23.081Z,0.6
2019-03-08T02:12:23.149Z,0.5
2019-03-08T02:13:23.097Z,0.5
2019-03-08T02:14:23.117Z,0.4
2019-03-08T02:15:23.120Z,0.4
2019-03-08T02:16:23.146Z,0.5
2019-03-08T02:17:23.141Z,0.5
2019-03-08T02:18:23.131Z,0.4
2019-03-08T02:19:23.142Z,0.3
2019-03-08T02:20:23.185Z,0.4
2019-03-08T02:21:23.134Z,0.3
2019-03-08T02:22:23.640Z,0.3
2019-03-08T02:23:23.166Z,0.3
2019-03-08T02:24:23.134Z,0.3
2019-03-08T02:25:23.409Z,0.2
2019-03-08T02:26:23.158Z,0.3
2019-03-08T02:27:25.400Z,0.2
2019-03-08T02:28:23.175Z,0.2
2019-03-08T02:29:23.170Z,0.1
2019-03-08T02:30:23.184Z,0.2
2019-03-08T02:31:23.228Z,0
2019-03-08T02:32:23.290Z,0
2019-03-08T02:33:23.280Z,0
2019-03-08T02:34:23.336Z,0
2019-03-08T02:35:23.370Z,0
2019-03-08T02:36:23.389Z,0.1
2019-03-08T02:37:23.486Z,0
2019-03-08T02:38:23.496Z,0
2019-03-08T02:39:23.579Z,0
2019-03-08T02:40:23.566Z,0
2019-03-08T02:41:26.214Z,0
2019-03-08T02:42:23.614Z,0
2019-03-08T02:43:23.645Z,0
2019-03-08T02:44:23.637Z,0
2019-03-08T02:45:23.698Z,0
2019-03-08T02:46:23.697Z,0
2019-03-08T02:47:23.754Z,-0.1
2019-03-08T02:48:23.784Z,-0.1
2019-03-08T02:49:23.791Z,0
2019-03-08T02:50:23.797Z,-0.1
2019-03-08T02:51:23.834Z,-0.1
2019-03-08T02:52:23.855Z,0
2019-03-08T02:53:23.869Z,0
2019-03-08T02:54:23.880Z,0
2019-03-08T02:55:23.914Z,0
2019-03-08T02:56:23.957Z,0
2019-03-08T02:57:24.009Z,0
2019-03-08T02:58:24.045Z,0
2019-03-08T02:59:24.037Z,0
2019-03-08T03:00:24.108Z,0
2019-03-08T03:01:24.096Z,0
2019-03-08T03:02:24.139Z,0
2019-03-08T03:03:24.148Z,0
2019-03-08T03:04:24.170Z,0
2019-03-08T03:05:24.224Z,0
2019-03-08T03:06:24.223Z,0
2019-03-08T03:07:24.229Z,0
2019-03-08T03:08:24.289Z,0
2019-03-08T03:09:24.295Z,0
2019-03-08T03:10:24.363Z,0
2019-03-08T03:11:24.430Z,0
2019-03-08T03:12:24.381Z,0
2019-03-08T03:13:24.390Z,0
2019-03-08T03:14:24.433Z,0
2019-03-08T03:15:24.462Z,0
2019-03-08T03:16:24.478Z,0
2019-03-08T03:17:24.509Z,0.1
2019-03-08T03:18:24.539Z,0
2019-03-08T03:19:24.541Z,0.1
2019-03-08T03:20:24.516Z,0.1
2019-03-08T03:21:24.557Z,0
2019-03-08T03:22:24.579Z,0.1
2019-03-08T03:23:24.605Z,0
2019-03-08T03:24:24.649Z,0.1
2019-03-08T03:25:24.627Z,0
2019-03-08T03:26:24.652Z,0
2019-03-08T03:27:24.665Z,0
2019-03-08T03:28:24.717Z,0
2019-03-08T03:29:25.036Z,0.1
2019-03-08T03:30:24.953Z,0
2019-03-08T03:31:24.758Z,0
2019-03-08T03:32:24.801Z,0.1
2019-03-08T03:33:24.790Z,0
2019-03-08T03:34:24.818Z,0.1
2019-03-08T03:35:24.809Z,0
2019-03-08T03:36:24.857Z,0.1
2019-03-08T03:37:24.882Z,0.1
2019-03-08T03:38:24.857Z,0.1
2019-03-08T03:39:24.883Z,0
2019-03-08T03:40:24.987Z,0.1
2019-03-08T03:41:24.899Z,0.1
2019-03-08T03:42:24.893Z,0.1
2019-03-08T03:43:24.919Z,0.2
2019-03-08T03:44:24.961Z,0.1
2019-03-08T03:45:24.953Z,0.1
2019-03-08T03:46:25.014Z,0.1
2019-03-08T03:47:24.965Z,0.1
2019-03-08T03:48:24.993Z,0.1
2019-03-08T03:49:24.988Z,0
2019-03-08T03:50:25.005Z,0.1
2019-03-08T03:51:25.013Z,0.1
2019-03-08T03:52:25.028Z,0.2
2019-03-08T03:53:25.047Z,0.3
2019-03-08T03:54:25.061Z,0.1
2019-03-08T03:55:25.119Z,0.2
2019-03-08T03:56:25.022Z,0.2
2019-03-08T03:57:25.049Z,0.1
2019-03-08T03:58:25.059Z,0.2
2019-03-08T03:59:25.061Z,0.1
2019-03-08T04:00:25.205Z,0.1
2019-03-08T04:01:25.068Z,0.1
2019-03-08T04:02:25.113Z,0.1
2019-03-08T04:03:25.103Z,0.2
2019-03-08T04:04:25.100Z,0.1
2019-03-08T04:05:25.067Z,0.1
2019-03-08T04:06:25.070Z,0.1
2019-03-08T04:07:25.092Z,0
2019-03-08T04:08:25.118Z,0
2019-03-08T04:09:25.118Z,0
2019-03-08T04:10:25.100Z,0.1
2019-03-08T04:11:25.106Z,0.1
2019-03-08T04:12:25.122Z,0.1
2019-03-08T04:13:25.141Z,0.1
2019-03-08T04:14:25.161Z,0.1
2019-03-08T04:15:25.133Z,0.1
2019-03-08T04:16:25.174Z,0.1
2019-03-08T04:17:25.153Z,0
2019-03-08T04:18:25.153Z,0.1
2019-03-08T04:19:25.197Z,0.1
2019-03-08T04:20:25.193Z,0.1
2019-03-08T04:21:25.184Z,0
2019-03-08T04:22:25.170Z,0
2019-03-08T04:23:25.197Z,0
2019-03-08T04:24:25.537Z,0
2019-03-08T04:25:25.300Z,0
2019-03-08T04:26:25.308Z,0
2019-03-08T04:27:25.361Z,0
2019-03-08T04:28:25.353Z,0
2019-03-08T04:29:25.377Z,0.1
2019-03-08T04:30:25.441Z,0
2019-03-08T04:31:25.455Z,0
2019-03-08T04:32:25.478Z,0.1
2019-03-08T04:33:25.534Z,0
2019-03-08T04:34:25.567Z,0
2019-03-08T04:35:25.555Z,0
2019-03-08T04:36:25.595Z,0
2019-03-08T04:37:25.600Z,0
2019-03-08T04:38:25.725Z,0
2019-03-08T04:39:25.672Z,0
2019-03-08T04:40:25.701Z,0
2019-03-08T04:41:25.733Z,0
2019-03-08T04:42:25.735Z,0
2019-03-08T04:43:25.769Z,-0.1
2019-03-08T04:44:25.809Z,0
2019-03-08T04:45:25.794Z,0
2019-03-08T04:46:25.845Z,0
2019-03-08T04:47:25.856Z,0
2019-03-08T04:48:25.843Z,0
2019-03-08T04:49:25.904Z,0
2019-03-08T04:50:25.909Z,0
2019-03-08T04:51:25.960Z,0
2019-03-08T04:52:25.941Z,-0.1
2019-03-08T04:53:25.993Z,0
2019-03-08T04:54:25.996Z,0
2019-03-08T04:55:26.036Z,0
2019-03-08T04:56:26.022Z,-0.1
2019-03-08T04:57:26.036Z,0
2019-03-08T04:58:26.061Z,-0.1
2019-03-08T04:59:26.078Z,-0.1
2019-03-08T05:00:26.097Z,-0.1
2019-03-08T05:01:26.131Z,-0.1
2019-03-08T05:02:26.130Z,0
2019-03-08T05:03:26.128Z,0
2019-03-08T05:04:33.785Z,0
2019-03-08T05:05:26.159Z,0.1
2019-03-08T05:06:26.190Z,0
2019-03-08T05:07:26.143Z,0
2019-03-08T05:08:26.201Z,0
2019-03-08T05:09:26.229Z,0
2019-03-08T05:10:26.224Z,0
2019-03-08T05:11:26.213Z,0
2019-03-08T05:12:26.256Z,0
2019-03-08T05:13:26.239Z,0
2019-03-08T05:14:26.283Z,0
2019-03-08T05:15:26.271Z,0
2019-03-08T05:16:26.325Z,0
2019-03-08T05:17:26.290Z,0.1
2019-03-08T05:18:26.317Z,0
2019-03-08T05:19:26.320Z,0
2019-03-08T05:20:26.305Z,0
2019-03-08T05:21:26.341Z,0.1
2019-03-08T05:22:26.333Z,0
2019-03-08T05:23:26.325Z,0.1
2019-03-08T05:24:26.330Z,0.1
2019-03-08T05:25:26.317Z,0.2
2019-03-08T05:26:26.364Z,0.1
2019-03-08T05:27:26.362Z,0.1
2019-03-08T05:28:26.346Z,0.2
2019-03-08T05:29:27.394Z,0.2
2019-03-08T05:30:26.386Z,0.1
2019-03-08T05:31:26.463Z,0.1
2019-03-08T05:32:26.468Z,0.1
2019-03-08T05:33:26.427Z,0.2
2019-03-08T05:34:26.414Z,0.1
2019-03-08T05:35:26.478Z,0
2019-03-08T05:36:26.526Z,0.1
2019-03-08T05:37:26.578Z,0
2019-03-08T05:38:26.588Z,0
2019-03-08T05:39:26.635Z,0.1
2019-03-08T05:40:26.712Z,0
2019-03-08T05:41:26.808Z,0
2019-03-08T05:42:26.792Z,0
2019-03-08T05:43:26.824Z,0
2019-03-08T05:44:26.866Z,0
2019-03-08T05:45:26.886Z,0
2019-03-08T05:46:26.917Z,0
2019-03-08T05:47:26.950Z,0
2019-03-08T05:48:26.997Z,0
2019-03-08T05:49:27.028Z,-0.1
2019-03-08T05:50:27.033Z,-0.1
2019-03-08T05:51:27.114Z,-0.1
2019-03-08T05:52:27.129Z,0
2019-03-08T05:53:27.150Z,-0.1
2019-03-08T05:54:27.214Z,-0.2
2019-03-08T05:55:27.243Z,-0.1
2019-03-08T05:56:27.279Z,-0.1
2019-03-08T05:57:27.309Z,-0.2
2019-03-08T05:58:27.354Z,-0.1
2019-03-08T05:59:27.373Z,-0.1
2019-03-08T06:00:31.719Z,-0.1
2019-03-08T06:01:27.427Z,-0.1
2019-03-08T06:02:27.449Z,-0.2
2019-03-08T06:03:27.498Z,-0.2
2019-03-08T06:04:27.500Z,-0.2
2019-03-08T06:05:27.565Z,-0.2
2019-03-08T06:06:27.544Z,-0.2
2019-03-08T06:07:27.584Z,-0.2
2019-03-08T06:08:27.674Z,-0.2
2019-03-08T06:09:27.649Z,-0.2
2019-03-08T06:10:27.667Z,-0.2
2019-03-08T06:11:27.654Z,-0.2
2019-03-08T06:12:27.694Z,-0.2
2019-03-08T06:13:27.711Z,-0.1
2019-03-08T06:14:27.741Z,-0.1
2019-03-08T06:16:27.759Z,-0.1
2019-03-08T06:16:32.932Z,-0.2
2019-03-08T06:17:27.844Z,-0.2
2019-03-08T06:18:27.846Z,-0.2
2019-03-08T06:19:27.844Z,-0.1
2019-03-08T06:20:27.871Z,-0.2
2019-03-08T06:21:27.887Z,-0.1
2019-03-08T06:22:27.939Z,-0.2
2019-03-08T06:23:27.908Z,-0.2
2019-03-08T06:24:27.987Z,-0.2
2019-03-08T06:25:28.023Z,-0.2
2019-03-08T06:26:27.989Z,-0.3
2019-03-08T06:27:27.961Z,-0.3
2019-03-08T06:28:28.315Z,-0.2
2019-03-08T06:29:27.987Z,-0.3
2019-03-08T06:30:30.477Z,-0.3
2019-03-08T06:31:28.041Z,-0.2
2019-03-08T06:32:28.140Z,-0.4
2019-03-08T06:33:28.054Z,-0.4
2019-03-08T06:34:28.053Z,-0.3
2019-03-08T06:35:28.056Z,-0.3
2019-03-08T06:36:28.119Z,-0.3
2019-03-08T06:37:28.096Z,-0.2
2019-03-08T06:38:28.062Z,-0.5
2019-03-08T06:39:28.129Z,-0.4
2019-03-08T06:40:28.147Z,-0.4
2019-03-08T06:41:28.127Z,-0.4
2019-03-08T06:42:28.153Z,-0.5
2019-03-08T06:43:28.180Z,-0.5
2019-03-08T06:44:28.194Z,-0.5
2019-03-08T06:45:28.155Z,-0.5
2019-03-08T06:46:28.262Z,-0.6
2019-03-08T06:47:28.190Z,-0.7
2019-03-08T06:48:28.177Z,-0.6
2019-03-08T06:49:28.171Z,-0.5
2019-03-08T06:50:28.199Z,-0.7
2019-03-08T06:51:28.216Z,-0.7
2019-03-08T06:52:28.179Z,-0.7
2019-03-08T06:53:28.206Z,-0.7
2019-03-08T06:54:28.257Z,-0.7
2019-03-08T06:55:28.216Z,-0.5
2019-03-08T06:56:28.224Z,-0.6
2019-03-08T06:57:28.237Z,-0.7
2019-03-08T06:58:28.248Z,-0.7
2019-03-08T06:59:28.250Z,-0.7
2019-03-08T07:00:28.231Z,-0.7
2019-03-08T07:01:28.286Z,-0.8
2019-03-08T07:02:30.175Z,-0.6
2019-03-08T07:03:30.608Z,-0.7
2019-03-08T07:04:28.371Z,-0.7
2019-03-08T07:05:28.399Z,-0.6
2019-03-08T07:06:28.448Z,-0.7
2019-03-08T07:07:29.531Z,-0.7
2019-03-08T07:08:28.508Z,-0.6
2019-03-08T07:09:28.548Z,-0.7
2019-03-08T07:10:28.556Z,-0.6
2019-03-08T07:11:28.633Z,-0.6
2019-03-08T07:12:28.606Z,-0.7
2019-03-08T07:13:28.635Z,-0.7
2019-03-08T07:14:28.702Z,-0.7
2019-03-08T07:15:28.740Z,-0.5
2019-03-08T07:16:28.719Z,-0.5
2019-03-08T07:17:28.863Z,-0.4
2019-03-08T07:18:28.822Z,-0.5
2019-03-08T07:19:28.835Z,-0.5
2019-03-08T07:20:28.853Z,-0.5
2019-03-08T07:21:28.878Z,-0.5
2019-03-08T07:22:28.942Z,-0.1
2019-03-08T07:23:28.947Z,-0.3
2019-03-08T07:24:29.016Z,-0.2
2019-03-08T07:25:29.017Z,-0.3
2019-03-08T07:26:29.049Z,-0.4
2019-03-08T07:27:29.152Z,-0.1
2019-03-08T07:28:29.097Z,-0.1
2019-03-08T07:29:29.162Z,0
2019-03-08T07:30:29.158Z,-0.1
2019-03-08T07:31:29.226Z,-0.3
2019-03-08T07:32:29.251Z,-0.1
2019-03-08T07:33:29.239Z,0
2019-03-08T07:34:29.248Z,0.1
2019-03-08T07:35:29.278Z,-0.2
2019-03-08T07:36:29.288Z,-0.3
2019-03-08T07:37:29.292Z,-0.2
2019-03-08T07:38:29.351Z,-0.3
2019-03-08T07:39:29.339Z,-0.4
2019-03-08T07:40:29.398Z,-0.5
2019-03-08T07:41:29.437Z,-0.4
2019-03-08T07:42:29.430Z,-0.3
2019-03-08T07:43:29.493Z,-0.2
2019-03-08T07:44:29.459Z,-0.2
2019-03-08T07:45:29.495Z,-0.2
2019-03-08T07:46:29.512Z,-0.2
2019-03-08T07:47:29.510Z,-0.3
2019-03-08T07:48:29.526Z,-0.4
2019-03-08T07:49:29.558Z,-0.3
2019-03-08T07:50:29.571Z,-0.6
2019-03-08T07:51:29.574Z,-0.4
2019-03-08T07:52:29.598Z,-0.6
2019-03-08T07:53:29.607Z,-0.6
2019-03-08T07:54:29.646Z,-0.7
2019-03-08T07:55:29.671Z,-0.9
2019-03-08T07:56:29.671Z,-0.8
2019-03-08T07:57:29.710Z,-0.8
2019-03-08T07:58:29.729Z,-0.7
2019-03-08T07:59:29.735Z,-0.8
2019-03-08T08:00:29.751Z,-0.9
2019-03-08T08:01:29.731Z,-1
2019-03-08T08:02:29.762Z,-1.1
2019-03-08T08:03:29.811Z,-0.9
2019-03-08T08:04:30.483Z,-1
2019-03-08T08:05:29.811Z,-1.1
2019-03-08T08:06:29.813Z,-1.1
2019-03-08T08:07:29.831Z,-0.9
2019-03-08T08:08:29.834Z,-1
2019-03-08T08:09:29.834Z,-1
2019-03-08T08:10:29.865Z,-1.1
2019-03-08T08:11:30.889Z,-0.8
2019-03-08T08:12:29.850Z,-0.8
2019-03-08T08:13:29.897Z,-0.9
2019-03-08T08:14:39.130Z,-1
2019-03-08T08:15:29.890Z,-0.9
2019-03-08T08:16:29.900Z,-0.8
2019-03-08T08:17:29.877Z,-0.8
2019-03-08T08:18:29.886Z,-0.5
2019-03-08T08:19:29.920Z,-0.7
2019-03-08T08:20:29.908Z,-0.7
2019-03-08T08:21:29.928Z,-0.8
2019-03-08T08:22:29.944Z,-0.6
2019-03-08T08:23:34.197Z,-0.7
2019-03-08T08:24:29.932Z,-0.6
2019-03-08T08:25:36.486Z,-0.6
2019-03-08T08:26:29.969Z,-0.7
2019-03-08T08:27:29.960Z,-0.5
2019-03-08T08:28:29.941Z,-0.4
2019-03-08T08:29:34.867Z,-0.5
2019-03-08T08:30:29.942Z,-0.5
2019-03-08T08:31:29.966Z,-0.5
2019-03-08T08:32:30.014Z,-0.6
2019-03-08T08:33:30.018Z,-0.5
2019-03-08T08:34:29.983Z,-0.5
2019-03-08T08:35:30.026Z,-0.5
2019-03-08T08:36:30.033Z,-0.5
2019-03-08T08:37:30.015Z,-0.4
2019-03-08T08:38:30.024Z,-0.4
2019-03-08T08:39:30.046Z,-0.4
2019-03-08T08:40:30.054Z,-0.5
2019-03-08T08:41:30.057Z,-0.3
2019-03-08T08:42:30.098Z,-0.4
2019-03-08T08:43:31.128Z,-0.5
2019-03-08T08:44:30.646Z,-0.3
2019-03-08T08:45:30.098Z,-0.3
2019-03-08T08:46:30.172Z,-0.4
2019-03-08T08:47:30.126Z,-0.4
2019-03-08T08:48:30.134Z,-0.4
2019-03-08T08:49:30.135Z,0
2019-03-08T08:50:30.209Z,-0.3
2019-03-08T08:51:30.156Z,-0.3
2019-03-08T08:52:30.174Z,-0.3
2019-03-08T08:53:30.173Z,-0.3
2019-03-08T08:54:30.174Z,-0.3
2019-03-08T08:55:30.174Z,-0.3
2019-03-08T08:56:30.195Z,-0.2
2019-03-08T08:57:30.198Z,-0.3
2019-03-08T08:58:30.186Z,-0.2
2019-03-08T08:59:30.179Z,-0.4
2019-03-08T09:00:30.172Z,-0.2
2019-03-08T09:01:30.179Z,-0.2
2019-03-08T09:02:30.190Z,-0.2
2019-03-08T09:03:30.200Z,-0.1
2019-03-08T09:04:30.212Z,-0.4
2019-03-08T09:05:30.257Z,0
2019-03-08T09:06:30.255Z,-0.1
2019-03-08T09:07:30.330Z,-0.3
2019-03-08T09:08:30.300Z,-0.1
2019-03-08T09:09:30.315Z,-0.3
2019-03-08T09:10:30.342Z,-0.1
2019-03-08T09:11:30.342Z,-0.2
2019-03-08T09:12:30.343Z,-0.2
2019-03-08T09:13:30.374Z,-0.2
2019-03-08T09:14:30.369Z,-0.1
2019-03-08T09:15:30.397Z,-0.2
2019-03-08T09:16:30.402Z,-0.2
2019-03-08T09:17:30.411Z,-0.2
2019-03-08T09:18:30.438Z,-0.2
2019-03-08T09:19:30.419Z,-0.2
2019-03-08T09:20:32.880Z,-0.2
2019-03-08T09:21:30.467Z,-0.1
2019-03-08T09:22:30.586Z,-0.2
2019-03-08T09:23:30.487Z,-0.3
2019-03-08T09:24:30.510Z,-0.4
2019-03-08T09:25:30.487Z,-0.1
2019-03-08T09:26:30.523Z,-0.1
2019-03-08T09:27:30.525Z,-0.2
2019-03-08T09:28:30.533Z,-0.1
2019-03-08T09:29:30.615Z,-0.2
2019-03-08T09:30:30.548Z,-0.3
2019-03-08T09:31:30.580Z,-0.3
2019-03-08T09:32:30.562Z,-0.1
2019-03-08T09:33:30.529Z,-0.2
2019-03-08T09:34:30.557Z,0
2019-03-08T09:35:30.570Z,0
2019-03-08T09:36:30.546Z,-0.1
2019-03-08T09:37:30.614Z,0
2019-03-08T09:38:30.576Z,-0.1
2019-03-08T09:39:30.559Z,-0.3
2019-03-08T09:40:30.576Z,-0.1
2019-03-08T09:41:30.582Z,-0.3
2019-03-08T09:42:30.616Z,-0.2
2019-03-08T09:43:30.643Z,-0.2
2019-03-08T09:44:30.703Z,-0.5
2019-03-08T09:45:30.782Z,0
2019-03-08T09:46:30.795Z,-0.1
2019-03-08T09:47:30.811Z,-0.2
2019-03-08T09:48:30.861Z,0
2019-03-08T09:49:30.899Z,0
2019-03-08T09:50:30.889Z,0
2019-03-08T09:51:30.953Z,0
2019-03-08T09:52:32.442Z,0
2019-03-08T09:53:31.036Z,0.1
2019-03-08T09:54:31.156Z,0
2019-03-08T09:55:31.091Z,0
2019-03-08T09:56:31.119Z,0
2019-03-08T09:57:31.150Z,0
2019-03-08T09:58:31.165Z,-0.1
2019-03-08T09:59:31.241Z,-0.1
2019-03-08T10:00:31.310Z,-0.1
2019-03-08T10:01:31.298Z,0
2019-03-08T10:02:31.345Z,0
2019-03-08T10:03:31.395Z,0
2019-03-08T10:04:31.384Z,0
2019-03-08T10:05:31.389Z,0
2019-03-08T10:06:31.438Z,0
2019-03-08T10:07:31.443Z,0
2019-03-08T10:08:31.482Z,0
2019-03-08T10:09:31.557Z,-0.1
2019-03-08T10:10:31.564Z,0
2019-03-08T10:11:31.609Z,0
2019-03-08T10:12:31.616Z,0.1
2019-03-08T10:13:31.639Z,0
2019-03-08T10:14:31.680Z,0.1
2019-03-08T10:15:31.711Z,0.1
2019-03-08T10:16:31.709Z,0
2019-03-08T10:17:31.752Z,0.1
2019-03-08T10:18:31.763Z,0.2
2019-03-08T10:19:31.839Z,0.2
2019-03-08T10:20:31.832Z,0.1
2019-03-08T10:21:31.868Z,0.1
2019-03-08T10:22:31.873Z,0
2019-03-08T10:23:32.086Z,0.1
2019-03-08T10:24:31.917Z,0
2019-03-08T10:25:31.951Z,0.2
2019-03-08T10:26:31.931Z,0.1
2019-03-08T10:27:37.977Z,0.3
2019-03-08T10:28:32.016Z,0
2019-03-08T10:29:32.029Z,0
2019-03-08T10:30:32.060Z,0.2
2019-03-08T10:31:32.066Z,0.1
2019-03-08T10:32:37.214Z,0
2019-03-08T10:33:32.089Z,0.1
2019-03-08T10:34:32.138Z,0.1
2019-03-08T10:35:32.127Z,0.1
2019-03-08T10:36:32.184Z,0.4
2019-03-08T10:37:32.158Z,0.2
2019-03-08T10:38:32.151Z,0.1
2019-03-08T10:39:32.196Z,0.3
2019-03-08T10:40:32.182Z,0.1
2019-03-08T10:41:32.217Z,0.1
2019-03-08T10:42:32.184Z,0.1
2019-03-08T10:43:32.192Z,0.3
2019-03-08T10:44:32.217Z,0.5
2019-03-08T10:45:32.251Z,0.4
2019-03-08T10:46:32.240Z,0.3
2019-03-08T10:47:32.237Z,0.4
2019-03-08T10:48:32.286Z,0.5
2019-03-08T10:49:32.304Z,0.6
2019-03-08T10:50:32.323Z,0.4
2019-03-08T10:51:32.316Z,0.6
2019-03-08T10:52:32.311Z,0.4
2019-03-08T10:53:32.334Z,0.7
2019-03-08T10:54:32.328Z,0.8
2019-03-08T10:55:32.332Z,0.5
2019-03-08T10:56:32.322Z,0.7
2019-03-08T10:57:32.352Z,0.7
2019-03-08T10:58:32.389Z,0.6
2019-03-08T10:59:32.384Z,0.5
2019-03-08T11:00:32.351Z,0.6
2019-03-08T11:01:32.370Z,0.5
2019-03-08T11:02:32.362Z,0.6
2019-03-08T11:03:32.362Z,0.7
2019-03-08T11:04:32.380Z,0.7
2019-03-08T11:05:32.392Z,0.7
2019-03-08T11:06:32.450Z,0.8
2019-03-08T11:07:32.485Z,0.7
2019-03-08T11:08:32.523Z,0.7
2019-03-08T11:09:32.550Z,0.5
2019-03-08T11:10:32.613Z,0.6
2019-03-08T11:11:32.653Z,0.4
2019-03-08T11:12:32.691Z,0.4
2019-03-08T11:13:32.774Z,0.5
2019-03-08T11:14:32.760Z,0.7
2019-03-08T11:15:32.786Z,0.6
2019-03-08T11:16:32.791Z,0.6
2019-03-08T11:17:32.838Z,0.5
2019-03-08T11:18:32.873Z,0.6
2019-03-08T11:19:32.889Z,0.4
2019-03-08T11:20:32.963Z,0.4
2019-03-08T11:21:32.947Z,0.5
2019-03-08T11:22:33.057Z,0.3
2019-03-08T11:23:33.022Z,0.3
2019-03-08T11:24:33.595Z,0.3
2019-03-08T11:25:35.091Z,0.3
2019-03-08T11:26:33.112Z,0.3
2019-03-08T11:27:33.175Z,0.3
2019-03-08T11:28:33.183Z,0.4
2019-03-08T11:29:33.242Z,0.5
2019-03-08T11:30:33.280Z,0.4
2019-03-08T11:31:34.828Z,0.4
2019-03-08T11:32:33.325Z,0.3
2019-03-08T11:33:33.407Z,0.4
2019-03-08T11:34:33.399Z,0.3
2019-03-08T11:35:33.422Z,0.3
2019-03-08T11:36:33.481Z,0.3
2019-03-08T11:37:33.445Z,0.2
2019-03-08T11:38:33.501Z,0.2
2019-03-08T11:39:33.541Z,0.2
2019-03-08T11:40:33.591Z,0.4
2019-03-08T11:41:33.636Z,0.3
2019-03-08T11:42:33.597Z,0.5
2019-03-08T11:43:33.662Z,0.4
2019-03-08T11:44:33.694Z,0.4
2019-03-08T11:45:33.729Z,0.4
2019-03-08T11:46:33.733Z,0.6
2019-03-08T11:47:33.795Z,0.6
2019-03-08T11:48:33.804Z,0.6
2019-03-08T11:49:33.821Z,0.6
2019-03-08T11:50:33.890Z,0.6
2019-03-08T11:51:33.867Z,0.7
2019-03-08T11:52:33.907Z,0.8
2019-03-08T11:53:33.909Z,0.7
2019-03-08T11:54:40.471Z,1
2019-03-08T11:55:33.951Z,1.1
2019-03-08T11:56:35.034Z,1.3
2019-03-08T11:57:33.988Z,1.1
2019-03-08T11:58:34.015Z,1.1
2019-03-08T11:59:34.051Z,1.1
2019-03-08T12:00:34.078Z,1
2019-03-08T12:01:34.106Z,1.1
2019-03-08T12:02:37.686Z,1.2
2019-03-08T12:03:34.115Z,1.5
2019-03-08T12:04:34.173Z,1.6
2019-03-08T12:05:34.152Z,1.6
2019-03-08T12:06:34.858Z,1.6
2019-03-08T12:07:34.187Z,1.7
2019-03-08T12:08:34.243Z,1.7
2019-03-08T12:09:34.230Z,1.7
2019-03-08T12:10:34.246Z,1.8
2019-03-08T12:11:34.285Z,1.8
2019-03-08T12:12:34.275Z,1.8
2019-03-08T12:13:34.294Z,2
2019-03-08T12:14:34.321Z,2.1
2019-03-08T12:15:34.314Z,2.2
2019-03-08T12:16:34.330Z,2.3
2019-03-08T12:17:34.345Z,2.1
2019-03-08T12:18:34.381Z,2.1
2019-03-08T12:19:34.354Z,2.1
2019-03-08T12:20:34.417Z,2
2019-03-08T12:21:34.388Z,2.2
2019-03-08T12:22:34.418Z,2.2
2019-03-08T12:23:34.434Z,2.2
2019-03-08T12:24:34.413Z,2.6
2019-03-08T12:25:34.458Z,2.5
2019-03-08T12:26:34.452Z,2.3
2019-03-08T12:27:34.452Z,2.6
2019-03-08T12:28:34.492Z,2.4
2019-03-08T12:29:34.507Z,2.4
2019-03-08T12:30:34.612Z,2.3
2019-03-08T12:31:34.498Z,2.2
2019-03-08T12:32:34.498Z,2.4
2019-03-08T12:33:34.530Z,2.4
2019-03-08T12:34:34.516Z,2.5
2019-03-08T12:35:34.514Z,2.5
2019-03-08T12:36:34.519Z,2.6
2019-03-08T12:37:34.539Z,2.4
2019-03-08T12:38:34.554Z,2.5
2019-03-08T12:39:34.600Z,2.7
2019-03-08T12:40:34.611Z,2.8
2019-03-08T12:41:34.558Z,3.3
2019-03-08T12:42:34.641Z,3.6
2019-03-08T12:43:34.595Z,3.6
2019-03-08T12:44:34.596Z,3.7
2019-03-08T12:45:34.586Z,4
2019-03-08T12:46:34.603Z,3.9
2019-03-08T12:47:34.638Z,4
2019-03-08T12:48:34.588Z,4.4
2019-03-08T12:49:34.607Z,4.6
2019-03-08T12:50:34.597Z,4.2
2019-03-08T12:51:34.605Z,4.4
2019-03-08T12:52:34.627Z,4.9
2019-03-08T12:53:34.745Z,5
2019-03-08T12:54:34.665Z,5.1
2019-03-08T12:55:34.649Z,4.8
2019-03-08T12:56:34.634Z,4.8
2019-03-08T12:57:34.655Z,4.6
2019-03-08T12:58:34.637Z,4.5
2019-03-08T12:59:34.652Z,4.4
2019-03-08T13:00:34.728Z,4.6
2019-03-08T13:01:34.740Z,4.8
2019-03-08T13:02:34.908Z,4.2
2019-03-08T13:03:34.801Z,4.4
2019-03-08T13:04:34.890Z,5
2019-03-08T13:05:34.873Z,4.3
2019-03-08T13:06:34.896Z,3.9
2019-03-08T13:07:34.916Z,4.1
2019-03-08T13:08:34.958Z,4.4
2019-03-08T13:09:34.971Z,4.2
2019-03-08T13:10:34.986Z,3.6
2019-03-08T13:11:35.161Z,3.6
2019-03-08T13:12:35.110Z,3.3
2019-03-08T13:13:35.083Z,3.2
2019-03-08T13:14:35.121Z,3.6
2019-03-08T13:15:35.156Z,3.4
2019-03-08T13:16:35.292Z,3.4
2019-03-08T13:17:35.185Z,3.5
2019-03-08T13:18:35.235Z,3.3
2019-03-08T13:19:35.269Z,3.3
2019-03-08T13:20:35.277Z,3
2019-03-08T13:21:35.311Z,2.8
2019-03-08T13:22:35.339Z,3.2
2019-03-08T13:23:35.384Z,2.9
2019-03-08T13:24:35.355Z,3
2019-03-08T13:25:35.461Z,3
2019-03-08T13:26:35.426Z,2.9
2019-03-08T13:27:35.438Z,2.7
2019-03-08T13:28:35.521Z,2.8
2019-03-08T13:29:35.462Z,2.6
2019-03-08T13:30:35.469Z,2.7
2019-03-08T13:31:35.534Z,3
2019-03-08T13:32:35.615Z,2.8
2019-03-08T13:33:35.554Z,2.6
2019-03-08T13:34:35.541Z,2.7
2019-03-08T13:35:35.673Z,2.7
2019-03-08T13:36:35.577Z,2.9
2019-03-08T13:37:35.593Z,2.4
2019-03-08T13:38:35.608Z,2.3
2019-03-08T13:39:35.628Z,2.5
2019-03-08T13:40:35.685Z,2.4
2019-03-08T13:41:35.695Z,2.9
2019-03-08T13:42:35.689Z,3
2019-03-08T13:43:35.644Z,3.2
2019-03-08T13:44:35.684Z,2.9
2019-03-08T13:45:35.699Z,2.7
2019-03-08T13:46:35.712Z,2.7
2019-03-08T13:47:35.707Z,2.8
2019-03-08T13:48:35.716Z,2.9
2019-03-08T13:49:35.720Z,2.8
2019-03-08T13:50:35.752Z,2.8
2019-03-08T13:51:35.738Z,2.6